Data for 01/20/2008

Time Sea-Level Adjusted Pressure Absolute Pressure Temperature Relative Humidity Dew Point   
(mb) (inHg) (mb) (inHg) (C) (F) (%) (C) (F)
00:05 1013 29.91 843 24.89 -7.2 19.1 91 -8.4 16.8
00:10 1013 29.91 843 24.89 -7.3 19 90 -8.7 16.4
00:15 1013 29.91 842 24.86 -7.4 18.8 89 -8.8 16.1
00:20 1013 29.91 843 24.89 -7.4 18.6 89 -9 15.9
00:25 1013 29.91 843 24.89 -7.5 18.4 89 -9.1 15.6
00:30 1013 29.91 842 24.86 -7.6 18.2 89 -9.2 15.5
00:35 1013 29.91 842 24.86 -7.7 18.1 89 -9.2 15.4
00:40 1013 29.91 842 24.86 -7.9 17.8 88 -9.5 14.9
00:45 1013 29.91 842 24.86 -8 17.6 88 -9.7 14.5
00:50 1013 29.91 842 24.86 -8.1 17.4 88 -9.9 14.3
00:55 1013 29.91 843 24.89 -8.2 17.2 88 -9.9 14.2
01:00 1013 29.91 843 24.89 -8.3 17.1 88 -9.9 14.1
01:05 1013 29.91 843 24.89 -8.4 17 88 -10.1 13.9
01:10 1013 29.91 843 24.89 -8.4 16.9 89 -10 14
01:15 1013 29.91 843 24.89 -8.5 16.7 89 -9.9 14.1
01:20 1013 29.91 843 24.89 -8.6 16.6 90 -9.9 14.2
01:25 1013 29.91 843 24.89 -8.6 16.5 90 -10 14.1
01:30 1013 29.91 843 24.89 -8.7 16.4 90 -10 13.9
01:35 1013 29.91 843 24.89 -8.8 16.2 90 -10.2 13.7
01:40 1014 29.94 843 24.89 -9 15.9 90 -10.4 13.3
01:45 1013 29.91 843 24.89 -9.1 15.7 88 -10.7 12.8
01:50 1013 29.91 843 24.89 -9.1 15.6 88 -10.7 12.7
01:55 1014 29.94 843 24.89 -9.2 15.4 88 -10.9 12.4
02:00 1014 29.94 843 24.89 -9.3 15.2 88 -11 12.1
02:05 1014 29.94 843 24.89 -9.5 15 88 -11.1 12.1
02:10 1014 29.94 843 24.89 -9.5 14.8 88 -11.2 11.8
02:15 1014 29.94 843 24.89 -9.6 14.7 87 -11.4 11.4
02:20 1014 29.94 843 24.89 -9.6 14.6 86 -11.5 11.2
02:25 1014 29.94 843 24.89 -9.7 14.6 86 -11.7 11
02:30 1014 29.94 843 24.89 -9.8 14.4 85 -11.9 10.6
02:35 1014 29.94 843 24.89 -9.8 14.4 85 -11.9 10.6
02:40 1014 29.94 843 24.89 -9.8 14.3 86 -11.8 10.8
02:45 1014 29.94 843 24.89 -9.9 14.2 86 -11.8 10.7
02:50 1014 29.94 843 24.89 -9.9 14.2 86 -11.9 10.6
02:55 1014 29.94 843 24.89 -9.9 14.1 86 -11.9 10.6
03:00 1014 29.94 843 24.89 -9.9 14.1 85 -12 10.4
03:05 1014 29.94 843 24.89 -10 14.1 85 -12.1 10.3
03:10 1014 29.94 843 24.89 -10.1 13.9 85 -12.1 10.2
03:15 1014 29.94 843 24.89 -10.1 13.9 85 -12.2 10
03:20 1014 29.94 843 24.89 -10.1 13.7 84 -12.4 9.7
03:25 1014 29.94 843 24.89 -10.2 13.6 85 -12.3 9.9
03:30 1014 29.94 843 24.89 -10.3 13.5 84 -12.5 9.6
03:35 1014 29.94 843 24.89 -10.2 13.6 82 -12.8 8.9
03:40 1014 29.94 843 24.89 -10.3 13.5 82 -12.8 8.9
03:45 1014 29.94 843 24.89 -10.3 13.4 81 -13 8.7
03:50 1014 29.94 843 24.89 -10.4 13.4 80 -13.2 8.2
03:55 1014 29.94 843 24.89 -10.3 13.4 79 -13.2 8.2
04:00 1014 29.94 843 24.89 -10.3 13.4 79 -13.3 8
04:05 1014 29.94 843 24.89 -10.3 13.4 78 -13.4 7.8
04:10 1014 29.94 843 24.89 -10.3 13.4 79 -13.4 7.9
04:15 1014 29.94 843 24.89 -10.4 13.4 79 -13.3 8
04:20 1014 29.94 843 24.89 -10.5 13.1 80 -13.3 8.1
04:25 1014 29.94 843 24.89 -10.7 12.8 81 -13.4 7.9
04:30 1014 29.94 843 24.89 -10.8 12.6 82 -13.3 8.1
04:35 1014 29.94 843 24.89 -10.9 12.3 82 -13.4 7.8
04:40 1014 29.94 843 24.89 -11 12.1 82 -13.6 7.5
04:45 1014 29.94 843 24.89 -11.1 11.9 82 -13.6 7.5
04:50 1014 29.94 843 24.89 -11.2 11.8 83 -13.6 7.5
04:55 1014 29.94 843 24.89 -11.3 11.6 83 -13.7 7.3
05:00 1014 29.94 843 24.89 -11.4 11.5 82 -13.9 7.1
05:05 1014 29.94 843 24.89 -11.5 11.4 83 -13.8 7.1
05:10 1014 29.94 843 24.89 -11.5 11.3 82 -14 6.9
05:15 1014 29.94 843 24.89 -11.5 11.3 82 -14 6.8
05:20 1014 29.94 843 24.89 -11.6 11.2 82 -14 6.8
05:25 1014 29.94 843 24.89 -11.6 11.1 83 -14 6.9
05:30 1014 29.94 843 24.89 -11.6 11.1 84 -13.9 7
05:35 1014 29.94 843 24.89 -11.7 11 83 -14 6.7
05:40 1014 29.94 843 24.89 -11.7 10.9 83 -14 6.8
05:45 1014 29.94 843 24.89 -11.8 10.8 84 -13.9 6.9
05:50 1014 29.94 843 24.89 -11.9 10.7 84 -14 6.8
05:55 1014 29.94 843 24.89 -11.9 10.5 84 -14.1 6.6
06:00 1014 29.94 843 24.89 -12 10.4 84 -14.2 6.5
06:05 1014 29.94 843 24.89 -12 10.4 83 -14.3 6.2
06:10 1014 29.94 843 24.89 -12.1 10.3 84 -14.3 6.3
06:15 1014 29.94 843 24.89 -12.1 10.3 83 -14.4 6
06:20 1014 29.94 843 24.89 -12.1 10.3 82 -14.5 5.9
06:25 1014 29.94 843 24.89 -12 10.3 82 -14.6 5.8
06:30 1014 29.94 843 24.89 -12 10.3 81 -14.6 5.7
06:35 1014 29.94 843 24.89 -12.1 10.3 82 -14.5 5.9
06:40 1014 29.94 843 24.89 -12.1 10.3 81 -14.7 5.5
06:45 1014 29.94 843 24.89 -12 10.4 80 -14.8 5.4
06:50 1014 29.94 843 24.89 -11.9 10.6 79 -14.8 5.4
06:55 1014 29.94 843 24.89 -11.9 10.6 78 -14.9 5.2
07:00 1014 29.94 843 24.89 -11.9 10.6 77 -15.2 4.7
07:05 1014 29.94 844 24.92 -11.9 10.6 77 -15.1 4.8
07:10 1014 29.94 844 24.92 -12 10.4 81 -14.7 5.5
07:15 1014 29.94 844 24.92 -12.3 9.9 81 -14.9 5.2
07:20 1014 29.94 844 24.92 -12.5 9.5 81 -15.1 4.8
07:25 1014 29.94 844 24.92 -12.7 9.2 82 -15.2 4.7
07:30 1014 29.94 844 24.92 -12.8 8.9 83 -15.2 4.7
07:35 1014 29.94 844 24.92 -13 8.7 83 -15.3 4.4
07:40 1014 29.94 844 24.92 -13.1 8.4 82 -15.5 4.1
07:45 1014 29.94 844 24.92 -13.2 8.3 82 -15.6 3.9
07:50 1014 29.94 844 24.92 -13.2 8.2 82 -15.6 3.9
07:55 1015 29.97 844 24.92 -13.2 8.2 82 -15.7 3.8
08:00 1015 29.97 844 24.92 -13.2 8.2 82 -15.7 3.8
08:05 1015 29.97 844 24.92 -13.3 8.2 83 -15.6 3.9
08:10 1015 29.97 844 24.92 -13.2 8.2 81 -15.9 3.4
08:15 1015 29.97 844 24.92 -13.2 8.2 81 -15.8 3.5
08:20 1015 29.97 844 24.92 -13.2 8.2 81 -15.9 3.4
08:25 1015 29.97 844 24.92 -13.3 8.1 80 -16 3.2
08:30 1015 29.97 844 24.92 -13.4 7.9 80 -16.2 2.8
08:35 1015 29.97 844 24.92 -13.4 7.8 80 -16.2 2.9
08:40 1015 29.97 844 24.92 -13.5 7.8 79 -16.4 2.6
08:45 1015 29.97 844 24.92 -13.5 7.6 79 -16.5 2.3
08:50 1015 29.97 844 24.92 -13.5 7.7 79 -16.4 2.5
08:55 1015 29.97 844 24.92 -13.6 7.6 78 -16.6 2.2
09:00 1015 29.97 844 24.92 -13.6 7.4 79 -16.6 2.1
09:05 1015 29.97 844 24.92 -13.7 7.4 79 -16.6 2.2
09:10 1015 29.97 844 24.92 -13.8 7.2 79 -16.7 1.9
09:15 1015 29.97 844 24.92 -13.8 7.2 79 -16.7 1.9
09:20 1015 29.97 844 24.92 -13.9 7 79 -16.8 1.7
09:25 1015 29.97 845 24.95 -14 6.8 79 -16.9 1.7
09:30 1015 29.97 845 24.95 -14.1 6.6 79 -17.1 1.3
09:35 1016 30 845 24.95 -14.2 6.4 79 -17.1 1.3
09:40 1016 30 845 24.95 -14.3 6.3 78 -17.3 0.9
09:45 1016 30 845 24.95 -14.4 6.2 79 -17.3 0.9
09:50 1016 30 845 24.95 -14.5 6 79 -17.4 0.7
09:55 1016 30 845 24.95 -14.6 5.8 78 -17.6 0.4
10:00 1016 30 845 24.95 -14.7 5.6 77 -17.9 -0.2
10:05 1016 30 845 24.95 -14.8 5.4 78 -17.9 -0.2
10:10 1016 30 845 24.95 -14.8 5.4 77 -17.9 -0.2
10:15 1016 30 845 24.95 -14.8 5.3 77 -18 -0.4
10:20 1016 30 845 24.95 -14.9 5.1 77 -18.1 -0.5
10:25 1016 30 845 24.95 -15 5 76 -18.3 -0.9
10:30 1016 30 845 24.95 -15.1 4.9 77 -18.3 -0.9
10:35 1016 30 845 24.95 -15.1 4.8 77 -18.3 -1
10:40 1016 30 845 24.95 -15.2 4.7 77 -18.3 -0.9
10:45 1016 30 845 24.95 -15.2 4.7 78 -18.2 -0.7
10:50 1016 30 845 24.95 -15.2 4.6 78 -18.2 -0.8
10:55 1016 30 846 24.98 -15.2 4.7 78 -18.2 -0.8
11:00 1016 30 846 24.98 -15.1 4.8 77 -18.4 -1.1
11:05 1016 30 845 24.95 -15.2 4.6 76 -18.6 -1.4
11:10 1016 30 845 24.95 -15.1 4.8 75 -18.5 -1.4
11:15 1016 30 845 24.95 -15 5 75 -18.6 -1.4
11:20 1016 30 845 24.95 -15 5 75 -18.5 -1.4
11:25 1016 30 845 24.95 -15 5.1 74 -18.6 -1.4
11:30 1016 30 845 24.95 -15 5 75 -18.5 -1.3
11:35 1016 30 845 24.95 -15 4.9 75 -18.5 -1.4
11:40 1016 30 845 24.95 -15 5.1 73 -18.8 -1.8
11:45 1016 30 845 24.95 -15.1 4.7 76 -18.5 -1.3
11:50 1016 30 845 24.95 -15.2 4.6 75 -18.8 -1.8
11:55 1016 30 845 24.95 -15.3 4.5 76 -18.7 -1.6
12:00 1016 30 845 24.95 -15.3 4.4 76 -18.6 -1.6
12:05 1016 30 845 24.95 -15.5 4.1 76 -18.9 -2
12:10 1016 30 845 24.95 -15.5 4.2 76 -18.8 -1.8
12:15 1016 30 845 24.95 -15.6 3.9 76 -18.9 -2
12:20 1016 30 845 24.95 -15.6 3.9 75 -19.1 -2.3
12:25 1016 30 845 24.95 -15.8 3.7 76 -19 -2.2
12:30 1016 30 845 24.95 -15.8 3.5 76 -19.2 -2.5
12:35 1016 30 845 24.95 -15.8 3.5 73 -19.6 -3.2
12:40 1016 30 845 24.95 -15.9 3.5 73 -19.6 -3.3
12:45 1016 30 845 24.95 -15.8 3.6 73 -19.6 -3.2
12:50 1016 30 845 24.95 -15.9 3.4 74 -19.5 -3.1
12:55 1016 30 845 24.95 -15.9 3.4 74 -19.5 -3.1
13:00 1016 30 845 24.95 -16 3.3 74 -19.6 -3.2
13:05 1016 30 845 24.95 -16 3.2 74 -19.6 -3.3
13:10 1016 30 845 24.95 -16 3.2 75 -19.5 -3.1
13:15 1016 30 845 24.95 -15.9 3.4 75 -19.4 -2.9
13:20 1016 30 845 24.95 -15.9 3.3 73 -19.7 -3.4
13:25 1016 30 845 24.95 -16.1 3 75 -19.5 -3.2
13:30 1016 30 845 24.95 -16.2 2.9 75 -19.6 -3.3
13:35 1016 30 845 24.95 -16.2 2.8 75 -19.6 -3.4
13:40 1016 30 845 24.95 -16.3 2.7 74 -19.9 -3.9
13:45 1016 30 845 24.95 -16.5 2.3 74 -20.1 -4.1
13:50 1016 30 845 24.95 -16.6 2.1 75 -20.1 -4.2
13:55 1016 30 845 24.95 -16.7 1.9 74 -20.3 -4.5
14:00 1016 30 845 24.95 -16.7 2 74 -20.2 -4.3
14:05 1016 30 845 24.95 -16.7 1.9 74 -20.4 -4.7
14:10 1016 30 845 24.95 -16.8 1.7 74 -20.4 -4.8
14:15 1016 30 845 24.95 -17 1.5 74 -20.6 -5
14:20 1016 30 846 24.98 -17.1 1.3 75 -20.5 -4.9
14:25 1016 30 846 24.98 -17.2 1.1 76 -20.4 -4.8
14:30 1016 30 846 24.98 -17.2 1 77 -20.4 -4.8
14:35 1017 30.03 846 24.98 -17.3 0.9 76 -20.6 -5
14:40 1017 30.03 846 24.98 -17.3 0.9 75 -20.6 -5.1
14:45 1017 30.03 846 24.98 -17.3 0.9 75 -20.7 -5.3
14:50 1017 30.03 846 24.98 -17.2 1 74 -20.8 -5.5
14:55 1017 30.03 846 24.98 -17.2 1 74 -20.9 -5.6
15:00 1017 30.03 846 24.98 -17.2 1 75 -20.7 -5.2
15:05 1017 30.03 846 24.98 -17.3 0.9 74 -20.8 -5.4
15:10 1017 30.03 846 24.98 -17.3 0.9 76 -20.6 -5.1
15:15 1017 30.03 846 24.98 -17.3 0.9 75 -20.7 -5.2
15:20 1017 30.03 846 24.98 -17.3 0.9 76 -20.6 -5.1
15:25 1017 30.03 846 24.98 -17.3 0.9 76 -20.5 -4.9
15:30 1017 30.03 846 24.98 -17.4 0.7 78 -20.3 -4.6
15:35 1017 30.03 846 24.98 -17.4 0.8 78 -20.3 -4.6
15:40 1017 30.03 846 24.98 -17.4 0.6 77 -20.6 -5.1
15:45 1017 30.03 846 24.98 -17.5 0.5 79 -20.3 -4.6
15:50 1017 30.03 846 24.98 -17.4 0.7 78 -20.3 -4.6
15:55 1017 30.03 846 24.98 -17.3 0.8 76 -20.6 -5.1
16:00 1017 30.03 846 24.98 -17.1 1.2 75 -20.6 -5.1
16:05 1017 30.03 846 24.98 -17 1.3 74 -20.6 -5.1
16:10 1017 30.03 846 24.98 -17.1 1.3 72 -21 -5.7
16:15 1017 30.03 846 24.98 -17.2 1.1 73 -20.9 -5.6
16:20 1017 30.03 846 24.98 -17.3 0.9 74 -20.9 -5.6
16:25 1017 30.03 846 24.98 -17.3 0.9 73 -21 -5.8
16:30 1017 30.03 846 24.98 -17.4 0.7 74 -21 -5.8
16:35 1017 30.03 846 24.98 -17.5 0.5 75 -21 -5.8
16:40 1017 30.03 846 24.98 -17.5 0.5 74 -21.1 -6
16:45 1017 30.03 846 24.98 -17.6 0.4 74 -21.1 -6
16:50 1017 30.03 846 24.98 -17.6 0.4 75 -21 -5.8
16:55 1017 30.03 846 24.98 -17.6 0.4 76 -20.9 -5.6
17:00 1017 30.03 847 25.01 -17.6 0.3 75 -21 -5.9
17:05 1017 30.03 847 25.01 -17.7 0.2 75 -21.1 -5.9
17:10 1018 30.06 847 25.01 -17.7 0.2 75 -21 -5.9
17:15 1018 30.06 847 25.01 -17.7 0.1 74 -21.3 -6.3
17:20 1018 30.06 847 25.01 -17.8 0 76 -21.1 -5.9
17:25 1018 30.06 847 25.01 -17.8 -0.1 74 -21.4 -6.5
17:30 1018 30.06 847 25.01 -17.9 -0.2 75 -21.3 -6.4
17:35 1018 30.06 847 25.01 -17.9 -0.2 75 -21.3 -6.3
17:40 1018 30.06 847 25.01 -18 -0.3 76 -21.2 -6.2
17:45 1018 30.06 847 25.01 -18 -0.4 76 -21.3 -6.3
17:50 1018 30.06 847 25.01 -18.1 -0.5 78 -21.1 -6
17:55 1018 30.06 847 25.01 -18.1 -0.6 78 -21.1 -6
18:00 1018 30.06 847 25.01 -18.2 -0.7 78 -21.1 -6.1
18:05 1018 30.06 847 25.01 -18.3 -0.9 76 -21.6 -6.8
18:10 1018 30.06 847 25.01 -18.3 -0.9 75 -21.6 -7
18:15 1018 30.06 847 25.01 -18.3 -0.9 74 -21.8 -7.3
18:20 1018 30.06 847 25.01 -18.3 -0.9 76 -21.6 -6.9
18:25 1018 30.06 847 25.01 -18.3 -1 75 -21.7 -7
18:30 1018 30.06 847 25.01 -18.4 -1.2 74 -21.9 -7.5
18:35 1018 30.06 847 25.01 -18.5 -1.3 74 -22 -7.6
18:40 1018 30.06 847 25.01 -18.5 -1.3 72 -22.3 -8.2
18:45 1018 30.06 847 25.01 -18.6 -1.4 72 -22.5 -8.5
18:50 1018 30.06 847 25.01 -18.5 -1.4 71 -22.6 -8.6
18:55 1018 30.06 847 25.01 -18.6 -1.4 70 -22.8 -9
19:00 1018 30.06 847 25.01 -18.6 -1.5 69 -23 -9.3
19:05 1018 30.06 847 25.01 -18.6 -1.4 69 -23 -9.4
19:10 1018 30.06 848 25.04 -18.6 -1.6 68 -23.2 -9.7
19:15 1018 30.06 848 25.04 -18.7 -1.7 69 -23.1 -9.6
19:20 1018 30.06 848 25.04 -18.7 -1.7 69 -23 -9.4
19:25 1018 30.06 848 25.04 -18.8 -1.9 70 -23 -9.4
19:30 1019 30.09 848 25.04 -18.9 -1.9 71 -22.8 -9.1
19:35 1019 30.09 848 25.04 -19 -2.1 72 -22.9 -9.2
19:40 1019 30.09 848 25.04 -19.1 -2.5 72 -22.9 -9.3
19:45 1019 30.09 848 25.04 -19.3 -2.7 72 -23.1 -9.6
19:50 1019 30.09 848 25.04 -19.4 -2.8 73 -23.1 -9.6
19:55 1019 30.09 848 25.04 -19.4 -2.9 72 -23.3 -10
20:00 1019 30.09 848 25.04 -19.4 -3 72 -23.3 -9.9
20:05 1019 30.09 848 25.04 -19.5 -3 71 -23.4 -10.1
20:10 1019 30.09 848 25.04 -19.5 -3.1 71 -23.4 -10.2
20:15 1019 30.09 848 25.04 -19.5 -3 72 -23.3 -9.9
20:20 1019 30.09 848 25.04 -19.5 -3.1 72 -23.3 -10
20:25 1019 30.09 848 25.04 -19.5 -3 79 -22.3 -8.1
20:30 1019 30.09 848 25.04 -19.7 -3.4 76 -22.9 -9.3
20:35 1019 30.09 848 25.04 -19.8 -3.6 73 -23.5 -10.3
20:40 1019 30.09 848 25.04 -19.8 -3.7 73 -23.5 -10.3
20:45 1019 30.09 848 25.04 -19.9 -3.8 73 -23.6 -10.4
20:50 1019 30.09 848 25.04 -19.9 -3.9 72 -23.8 -10.8
20:55 1019 30.09 848 25.04 -20 -4 72 -23.9 -11
21:00 1019 30.09 848 25.04 -20 -4 70 -24.1 -11.3
21:05 1019 30.09 848 25.04 -20 -4 71 -24 -11.2
21:10 1019 30.09 848 25.04 -20 -4.1 71 -24.1 -11.3
21:15 1019 30.09 848 25.04 -20.1 -4.2 71 -24.1 -11.4
21:20 1019 30.09 848 25.04 -20.2 -4.3 72 -24.1 -11.3
21:25 1019 30.09 848 25.04 -20.2 -4.3 73 -23.9 -11
21:30 1019 30.09 848 25.04 -20.2 -4.4 74 -23.7 -10.7
21:35 1019 30.09 848 25.04 -20.2 -4.4 75 -23.6 -10.5
21:40 1019 30.09 848 25.04 -20.3 -4.5 75 -23.6 -10.5
21:45 1019 30.09 848 25.04 -20.3 -4.6 76 -23.6 -10.5
21:50 1019 30.09 848 25.04 -20.4 -4.7 76 -23.6 -10.4
21:55 1019 30.09 848 25.04 -20.4 -4.7 76 -23.6 -10.5
22:00 1019 30.09 848 25.04 -20.4 -4.7 76 -23.6 -10.4
22:05 1019 30.09 848 25.04 -20.4 -4.7 76 -23.6 -10.4
22:10 1019 30.09 848 25.04 -20.4 -4.7 76 -23.7 -10.6
22:15 1019 30.09 848 25.04 -20.4 -4.6 76 -23.6 -10.5
22:20 1019 30.09 848 25.04 -20.4 -4.6 75 -23.7 -10.7
22:25 1019 30.09 848 25.04 -20.4 -4.7 74 -23.9 -11.1
22:30 1019 30.09 848 25.04 -20.4 -4.8 74 -23.9 -11.1
22:35 1019 30.09 848 25.04 -20.5 -4.9 76 -23.7 -10.6
22:40 1019 30.09 848 25.04 -20.5 -4.8 75 -23.8 -10.9
22:45 1019 30.09 848 25.04 -20.4 -4.8 77 -23.5 -10.3
22:50 1019 30.09 848 25.04 -20.5 -4.9 75 -23.9 -11.1
22:55 1019 30.09 848 25.04 -20.6 -5 74 -24 -11.2
23:00 1019 30.09 848 25.04 -20.6 -5.1 74 -24 -11.3
23:05 1019 30.09 848 25.04 -20.6 -5.1 75 -24 -11.2
23:10 1019 30.09 848 25.04 -20.6 -5.1 75 -24 -11.2
23:15 1019 30.09 848 25.04 -20.6 -5.2 75 -24 -11.1
23:20 1019 30.09 848 25.04 -20.7 -5.2 76 -23.9 -11
23:25 1019 30.09 848 25.04 -20.7 -5.3 75 -24 -11.2
23:30 1019 30.09 848 25.04 -20.8 -5.4 74 -24.2 -11.6
23:35 1019 30.09 848 25.04 -20.8 -5.4 73 -24.5 -12
23:40 1019 30.09 848 25.04 -20.8 -5.4 72 -24.6 -12.4
23:45 1019 30.09 848 25.04 -20.8 -5.4 72 -24.7 -12.4
23:50 1019 30.09 848 25.04 -20.9 -5.6 71 -24.8 -12.6
23:55 1019 30.09 848 25.04 -20.9 -5.7 71 -24.8 -12.7
24:00 1019 30.09 848 25.04 -21 -5.8 72 -24.8 -12.6